createdAt,value
2018-09-27T00:01:09.706Z,95.30
2018-09-27T00:03:38.781Z,95.30
2018-09-27T00:06:07.793Z,95.30
2018-09-27T00:08:36.878Z,95.30
2018-09-27T00:11:05.962Z,95.30
2018-09-27T00:13:35.080Z,95.40
2018-09-27T00:16:04.124Z,95.40
2018-09-27T00:18:33.002Z,95.50
2018-09-27T00:21:01.918Z,95.60
2018-09-27T00:23:30.809Z,95.50
2018-09-27T00:25:59.846Z,95.50
2018-09-27T00:28:28.798Z,95.40
2018-09-27T00:30:57.855Z,95.60
2018-09-27T00:33:26.805Z,95.60
2018-09-27T00:35:56.134Z,95.60
2018-09-27T00:38:25.153Z,95.50
2018-09-27T00:40:54.241Z,94.90
2018-09-27T00:43:23.394Z,95.80
2018-09-27T00:45:52.386Z,95.70
2018-09-27T00:48:21.297Z,95.70
2018-09-27T00:50:50.369Z,95.50
2018-09-27T00:53:19.291Z,95.60
2018-09-27T00:55:48.270Z,95.60
2018-09-27T00:58:17.449Z,95.60
2018-09-27T01:00:46.335Z,95.50
2018-09-27T01:03:15.487Z,95.50
2018-09-27T01:05:44.569Z,95.50
2018-09-27T01:08:13.561Z,95.50
2018-09-27T01:10:42.542Z,95.50
2018-09-27T01:13:11.580Z,95.50
2018-09-27T01:15:40.615Z,95.50
2018-09-27T01:18:09.654Z,95.50
2018-09-27T01:20:38.630Z,95.50
2018-09-27T01:23:07.799Z,95.50
2018-09-27T01:25:36.746Z,95.60
2018-09-27T01:28:06.053Z,95.60
2018-09-27T01:30:35.034Z,95.60
2018-09-27T01:33:04.098Z,95.60
2018-09-27T01:35:33.078Z,95.80
2018-09-27T01:38:02.178Z,95.80
2018-09-27T01:40:31.266Z,95.90
2018-09-27T01:43:00.236Z,95.80
2018-09-27T01:45:29.213Z,95.70
2018-09-27T01:47:58.287Z,95.70
2018-09-27T01:50:27.217Z,95.60
2018-09-27T01:52:56.284Z,95.60
2018-09-27T01:55:25.280Z,95.60
2018-09-27T01:57:54.241Z,95.60
2018-09-27T02:00:23.264Z,95.60
2018-09-27T02:02:58.669Z,95.70
2018-09-27T02:05:27.814Z,96.00
2018-09-27T02:07:56.811Z,95.70
2018-09-27T02:10:25.890Z,95.70
2018-09-27T02:12:54.831Z,95.70
2018-09-27T02:15:23.833Z,95.70
2018-09-27T02:17:52.818Z,95.70
2018-09-27T02:20:21.897Z,95.70
2018-09-27T02:22:50.845Z,95.70
2018-09-27T02:25:19.862Z,95.60
2018-09-27T02:27:48.861Z,95.60
2018-09-27T02:30:17.992Z,95.60
2018-09-27T02:32:46.955Z,95.60
2018-09-27T02:35:16.014Z,95.70
2018-09-27T02:37:44.993Z,95.50
2018-09-27T02:40:14.010Z,95.60
2018-09-27T02:42:42.996Z,95.60
2018-09-27T02:45:12.145Z,95.70
2018-09-27T02:47:41.318Z,95.60
2018-09-27T02:50:10.326Z,95.60
2018-09-27T02:52:39.425Z,95.60
2018-09-27T02:55:08.573Z,95.80
2018-09-27T02:57:37.554Z,95.60
2018-09-27T03:00:06.690Z,95.60
2018-09-27T03:02:35.698Z,95.50
2018-09-27T03:05:05.259Z,95.50
2018-09-27T03:07:34.299Z,95.60
2018-09-27T03:10:03.274Z,95.60
2018-09-27T03:12:32.425Z,95.60
2018-09-27T03:15:01.458Z,95.60
2018-09-27T03:17:36.773Z,95.60
2018-09-27T03:20:05.958Z,95.60
2018-09-27T03:22:34.933Z,95.60
2018-09-27T03:25:04.066Z,95.60
2018-09-27T03:27:33.121Z,95.50
2018-09-27T03:30:02.032Z,95.70
2018-09-27T03:35:05.429Z,95.60
2018-09-27T03:37:34.435Z,95.60
2018-09-27T03:40:03.351Z,95.60
2018-09-27T03:42:32.278Z,95.70
2018-09-27T03:45:01.533Z,95.70
2018-09-27T03:47:30.452Z,95.60
2018-09-27T03:49:59.418Z,95.70
2018-09-27T03:52:28.497Z,95.70
2018-09-27T03:54:57.781Z,95.70
2018-09-27T03:57:26.846Z,95.40
2018-09-27T03:59:55.885Z,95.70
2018-09-27T04:02:24.982Z,95.70
2018-09-27T04:04:54.021Z,95.70
2018-09-27T04:07:22.893Z,95.70
2018-09-27T04:09:51.914Z,95.60
2018-09-27T04:12:20.894Z,95.70
2018-09-27T04:14:49.898Z,95.90
2018-09-27T04:17:18.845Z,95.80
2018-09-27T04:19:47.725Z,95.80
2018-09-27T04:22:16.644Z,95.80
2018-09-27T04:24:45.632Z,96.10
2018-09-27T04:27:14.728Z,95.70
2018-09-27T04:29:43.759Z,95.70
2018-09-27T04:32:12.615Z,95.80
2018-09-27T04:34:41.650Z,95.80
2018-09-27T04:37:10.638Z,95.80
2018-09-27T04:39:39.663Z,95.80
2018-09-27T04:42:08.861Z,95.80
2018-09-27T04:44:37.854Z,95.70
2018-09-27T04:47:06.810Z,95.70
2018-09-27T04:49:35.932Z,95.70
2018-09-27T04:52:05.094Z,95.80
2018-09-27T04:54:34.251Z,95.80
2018-09-27T04:57:03.267Z,95.70
2018-09-27T04:59:32.387Z,95.70
2018-09-27T05:02:01.462Z,95.70
2018-09-27T05:04:30.715Z,95.70
2018-09-27T05:06:59.836Z,96.10
2018-09-27T05:09:29.276Z,95.80
2018-09-27T05:11:58.149Z,95.80
2018-09-27T05:14:27.231Z,95.70
2018-09-27T05:16:56.669Z,95.70
2018-09-27T05:19:25.960Z,95.80
2018-09-27T05:21:55.090Z,95.80
2018-09-27T05:24:24.237Z,95.80
2018-09-27T05:26:53.305Z,95.80
2018-09-27T05:29:22.523Z,95.80
2018-09-27T05:31:51.590Z,95.80
2018-09-27T05:34:20.674Z,95.80
2018-09-27T05:36:49.734Z,95.80
2018-09-27T05:39:18.853Z,96.00
2018-09-27T05:41:47.953Z,95.90
2018-09-27T05:44:17.068Z,96.30
2018-09-27T05:46:46.173Z,96.30
2018-09-27T05:49:15.210Z,96.60
2018-09-27T05:51:44.387Z,97.80
2018-09-27T05:54:13.541Z,97.90
2018-09-27T05:56:42.501Z,97.60
2018-09-27T05:59:11.713Z,98.40
2018-09-27T06:01:40.955Z,97.40
2018-09-27T06:04:10.061Z,97.00
2018-09-27T06:06:39.085Z,96.80
2018-09-27T06:09:10.750Z,96.50
2018-09-27T06:11:39.980Z,96.40
2018-09-27T06:14:09.086Z,96.00
2018-09-27T06:16:39.054Z,95.50
2018-09-27T06:19:08.867Z,95.50
2018-09-27T06:21:38.180Z,95.20
2018-09-27T06:24:07.322Z,93.60
2018-09-27T06:26:36.503Z,94.40
2018-09-27T06:29:05.684Z,93.10
2018-09-27T06:31:34.870Z,93.40
2018-09-27T06:34:04.177Z,92.00
2018-09-27T06:36:33.202Z,91.60
2018-09-27T06:39:02.410Z,94.00
2018-09-27T06:41:31.475Z,93.10
2018-09-27T06:44:00.537Z,94.40
2018-09-27T06:46:29.505Z,95.60
2018-09-27T06:48:58.753Z,96.50
2018-09-27T06:51:27.985Z,94.50
2018-09-27T06:53:57.066Z,94.10
2018-09-27T06:56:26.060Z,93.70
2018-09-27T06:58:55.153Z,92.60
2018-09-27T07:01:24.148Z,93.60
2018-09-27T07:03:53.166Z,92.40
2018-09-27T07:06:22.312Z,93.90
2018-09-27T07:08:51.338Z,93.40
2018-09-27T07:11:20.339Z,93.40
2018-09-27T07:13:49.554Z,93.20
2018-09-27T07:16:18.513Z,93.20
2018-09-27T07:18:47.622Z,94.20
2018-09-27T07:21:16.661Z,92.40
2018-09-27T07:23:45.669Z,94.00
2018-09-27T07:26:14.741Z,92.60
2018-09-27T07:28:44.056Z,92.20
2018-09-27T07:31:13.259Z,93.40
2018-09-27T07:33:42.303Z,93.30
2018-09-27T07:36:11.406Z,92.20
2018-09-27T07:38:40.896Z,91.40
2018-09-27T07:41:10.053Z,92.80
2018-09-27T07:43:39.083Z,92.40
2018-09-27T07:46:08.530Z,91.20
2018-09-27T07:48:38.831Z,90.90
2018-09-27T07:51:09.348Z,91.40
2018-09-27T07:53:40.124Z,91.20
2018-09-27T07:56:12.515Z,94.00
2018-09-27T07:58:43.216Z,91.80
2018-09-27T08:01:13.942Z,92.70
2018-09-27T08:03:44.658Z,92.00
2018-09-27T08:06:15.193Z,92.40
2018-09-27T08:08:45.479Z,91.20
2018-09-27T08:11:16.061Z,91.50
2018-09-27T08:13:45.903Z,92.00
2018-09-27T08:16:15.447Z,91.20
2018-09-27T08:18:44.507Z,91.40
2018-09-27T08:21:20.043Z,93.20
2018-09-27T08:23:49.028Z,90.00
2018-09-27T08:26:18.103Z,91.20
2018-09-27T08:28:47.074Z,90.30
2018-09-27T08:31:16.245Z,90.50
2018-09-27T08:33:45.314Z,90.90
2018-09-27T08:36:14.217Z,92.00
2018-09-27T08:38:43.326Z,92.00
2018-09-27T08:41:12.315Z,91.60
2018-09-27T08:43:41.381Z,89.10
2018-09-27T08:46:10.440Z,91.20
2018-09-27T08:48:39.589Z,90.90
2018-09-27T08:51:08.806Z,88.70
2018-09-27T08:53:37.874Z,91.40
2018-09-27T08:56:06.934Z,89.30
2018-09-27T08:58:35.997Z,91.20
2018-09-27T09:01:04.970Z,90.30
2018-09-27T09:03:34.229Z,87.60
2018-09-27T09:06:03.423Z,87.80
2018-09-27T09:08:32.558Z,88.60
2018-09-27T09:11:01.606Z,88.00
2018-09-27T09:13:30.670Z,88.70
2018-09-27T09:16:00.699Z,90.20
2018-09-27T09:18:29.500Z,89.30
2018-09-27T09:20:58.297Z,87.50
2018-09-27T09:23:27.078Z,86.50
2018-09-27T09:25:56.080Z,87.30
2018-09-27T09:28:25.210Z,86.60
2018-09-27T09:30:54.417Z,89.20
2018-09-27T09:33:23.775Z,87.70
2018-09-27T09:35:53.113Z,84.90
2018-09-27T09:38:22.415Z,83.40
2018-09-27T09:40:51.389Z,85.90
2018-09-27T09:43:20.406Z,85.80
2018-09-27T09:45:49.657Z,83.00
2018-09-27T09:48:18.867Z,84.00
2018-09-27T09:50:47.879Z,82.20
2018-09-27T09:53:16.862Z,81.90
2018-09-27T09:55:45.881Z,82.80
2018-09-27T09:58:14.858Z,83.40
2018-09-27T10:00:44.134Z,81.90
2018-09-27T10:03:13.241Z,83.80
2018-09-27T10:05:42.345Z,84.30
2018-09-27T10:08:11.655Z,83.20
2018-09-27T10:10:41.214Z,85.40
2018-09-27T10:13:10.418Z,82.80
2018-09-27T10:15:39.499Z,84.50
2018-09-27T10:18:08.767Z,81.50
2018-09-27T10:20:38.014Z,85.50
2018-09-27T10:23:06.977Z,80.30
2018-09-27T10:25:36.222Z,81.40
2018-09-27T10:28:05.385Z,78.70
2018-09-27T10:30:34.494Z,79.10
2018-09-27T10:33:03.611Z,79.80
2018-09-27T10:35:32.673Z,76.60
2018-09-27T10:38:01.828Z,77.10
2018-09-27T10:40:30.885Z,76.30
2018-09-27T10:42:59.907Z,81.00
2018-09-27T10:45:28.602Z,75.70
2018-09-27T10:47:57.351Z,78.30
2018-09-27T10:50:26.076Z,77.30
2018-09-27T10:52:56.064Z,77.80
2018-09-27T10:55:25.149Z,74.30
2018-09-27T10:57:54.201Z,75.20
2018-09-27T11:00:24.141Z,72.40
2018-09-27T11:02:53.586Z,72.80
2018-09-27T11:05:22.669Z,72.80
2018-09-27T11:07:51.706Z,71.90
2018-09-27T11:10:20.526Z,68.00
2018-09-27T11:12:49.564Z,67.30
2018-09-27T11:15:18.513Z,68.80
2018-09-27T11:17:47.753Z,70.30
2018-09-27T11:20:16.625Z,67.10
2018-09-27T11:22:45.588Z,70.30
2018-09-27T11:25:14.849Z,70.40
2018-09-27T11:27:43.940Z,68.00
2018-09-27T11:30:18.206Z,74.80
2018-09-27T11:32:47.210Z,70.10
2018-09-27T11:35:16.182Z,69.00
2018-09-27T11:37:45.184Z,70.10
2018-09-27T11:40:14.313Z,72.70
2018-09-27T11:42:43.373Z,74.40
2018-09-27T11:45:12.418Z,68.60
2018-09-27T11:47:41.555Z,66.50
2018-09-27T11:50:10.577Z,67.30
2018-09-27T11:52:39.707Z,67.80
2018-09-27T11:55:08.965Z,65.90
2018-09-27T11:57:38.078Z,66.70
2018-09-27T12:00:07.938Z,69.30
2018-09-27T12:02:37.170Z,68.20
2018-09-27T12:05:06.334Z,68.70
2018-09-27T12:07:35.325Z,67.90
2018-09-27T12:10:04.242Z,64.30
2018-09-27T12:12:32.929Z,67.30
2018-09-27T12:15:01.650Z,66.30
2018-09-27T12:17:30.437Z,57.70
2018-09-27T12:19:59.174Z,62.80
2018-09-27T12:22:27.889Z,63.30
2018-09-27T12:24:56.625Z,61.20
2018-09-27T12:27:25.593Z,60.70
2018-09-27T12:29:54.538Z,62.70
2018-09-27T12:32:23.513Z,64.30
2018-09-27T12:34:52.444Z,65.30
2018-09-27T12:37:21.322Z,61.00
2018-09-27T12:39:50.409Z,63.80
2018-09-27T12:42:19.406Z,62.80
2018-09-27T12:44:48.447Z,63.60
2018-09-27T12:47:17.370Z,62.40
2018-09-27T12:49:46.249Z,59.20
2018-09-27T12:52:15.541Z,59.60
2018-09-27T12:54:44.581Z,60.90
2018-09-27T12:57:13.512Z,57.30
2018-09-27T12:59:42.469Z,60.60
2018-09-27T13:02:11.583Z,56.90
2018-09-27T13:04:40.981Z,59.60
2018-09-27T13:07:09.933Z,57.80
2018-09-27T13:09:39.002Z,58.60
2018-09-27T13:12:08.285Z,57.40
2018-09-27T13:14:37.219Z,57.40
2018-09-27T13:17:06.210Z,59.00
2018-09-27T13:19:35.320Z,60.40
2018-09-27T13:22:04.166Z,59.60
2018-09-27T13:24:33.034Z,59.00
2018-09-27T13:27:02.013Z,59.20
2018-09-27T13:29:30.847Z,59.90
2018-09-27T13:32:00.072Z,60.70
2018-09-27T13:34:28.982Z,59.50
2018-09-27T13:36:58.131Z,59.50
2018-09-27T13:39:27.041Z,59.30
2018-09-27T13:41:56.102Z,60.90
2018-09-27T13:44:25.020Z,58.50
2018-09-27T13:46:53.763Z,59.00
2018-09-27T13:49:22.773Z,58.50
2018-09-27T13:51:51.525Z,57.70
2018-09-27T13:54:20.217Z,58.40
2018-09-27T13:56:49.209Z,59.30
2018-09-27T13:59:18.171Z,58.40
2018-09-27T14:01:47.310Z,59.10
2018-09-27T14:04:16.269Z,59.20
2018-09-27T14:06:45.202Z,55.80
2018-09-27T14:09:14.291Z,58.10
2018-09-27T14:11:43.238Z,57.70
2018-09-27T14:14:12.163Z,59.10
2018-09-27T14:16:41.250Z,58.30
2018-09-27T14:19:10.250Z,58.40
2018-09-27T14:21:39.110Z,61.60
2018-09-27T14:24:08.255Z,58.40
2018-09-27T14:26:37.215Z,57.20
2018-09-27T14:29:06.222Z,60.00
2018-09-27T14:31:35.203Z,57.30
2018-09-27T14:34:04.244Z,57.70
2018-09-27T14:36:33.206Z,61.80
2018-09-27T14:39:02.256Z,61.40
2018-09-27T14:41:31.159Z,62.50
2018-09-27T14:44:00.265Z,59.90
2018-09-27T14:46:29.198Z,60.60
2018-09-27T14:48:58.128Z,59.90
2018-09-27T14:51:27.250Z,59.40
2018-09-27T14:53:56.178Z,62.50
2018-09-27T14:56:25.154Z,59.10
2018-09-27T14:58:54.227Z,59.30
2018-09-27T15:01:23.168Z,60.70
2018-09-27T15:03:52.119Z,63.00
2018-09-27T15:06:21.089Z,63.00
2018-09-27T15:08:50.214Z,58.70
2018-09-27T15:11:19.343Z,58.60
2018-09-27T15:13:48.067Z,62.50
2018-09-27T15:16:16.932Z,59.30
2018-09-27T15:18:45.628Z,60.70
2018-09-27T15:21:14.365Z,59.30
2018-09-27T15:23:43.091Z,60.60
2018-09-27T15:26:12.070Z,60.90
2018-09-27T15:28:41.091Z,63.30
2018-09-27T15:31:10.102Z,61.40
2018-09-27T15:33:39.098Z,64.70
2018-09-27T15:36:08.133Z,66.40
2018-09-27T15:38:37.226Z,65.80
2018-09-27T15:41:06.135Z,63.60
2018-09-27T15:43:35.129Z,67.30
2018-09-27T15:46:04.156Z,68.50
2018-09-27T15:48:33.134Z,67.80
2018-09-27T15:51:02.174Z,66.50
2018-09-27T15:53:31.046Z,68.90
2018-09-27T15:56:00.075Z,68.60
2018-09-27T15:58:29.174Z,68.20
2018-09-27T16:00:58.056Z,69.20
2018-09-27T16:03:26.894Z,67.10
2018-09-27T16:05:56.026Z,67.50
2018-09-27T16:08:25.154Z,66.80
2018-09-27T16:10:54.126Z,70.20
2018-09-27T16:13:23.049Z,71.10
2018-09-27T16:15:52.038Z,70.90
2018-09-27T16:18:20.914Z,72.80
2018-09-27T16:20:49.886Z,72.50
2018-09-27T16:23:18.926Z,71.30
2018-09-27T16:25:47.907Z,73.00
2018-09-27T16:28:17.210Z,73.60
2018-09-27T16:30:46.206Z,73.90
2018-09-27T16:33:15.182Z,73.90
2018-09-27T16:35:44.349Z,74.60
2018-09-27T16:38:13.292Z,74.60
2018-09-27T16:40:42.449Z,73.20
2018-09-27T16:43:11.339Z,76.10
2018-09-27T16:45:41.021Z,75.20
2018-09-27T16:48:09.772Z,76.10
2018-09-27T16:50:38.526Z,76.50
2018-09-27T16:53:07.490Z,76.60
2018-09-27T16:55:36.629Z,76.80
2018-09-27T16:58:05.608Z,77.80
2018-09-27T17:00:34.479Z,78.30
2018-09-27T17:03:03.417Z,78.40
2018-09-27T17:05:32.552Z,79.00
2018-09-27T17:08:01.629Z,80.30
2018-09-27T17:10:30.583Z,80.80
2018-09-27T17:12:59.660Z,81.10
2018-09-27T17:15:28.642Z,81.60
2018-09-27T17:17:57.847Z,82.80
2018-09-27T17:20:26.898Z,83.80
2018-09-27T17:22:55.858Z,84.20
2018-09-27T17:25:24.890Z,83.70
2018-09-27T17:27:53.866Z,84.40
2018-09-27T17:30:22.798Z,84.80
2018-09-27T17:32:51.766Z,84.90
2018-09-27T17:35:20.775Z,85.50
2018-09-27T17:37:49.776Z,86.40
2018-09-27T17:40:19.207Z,86.70
2018-09-27T17:42:48.314Z,86.70
2018-09-27T17:45:17.346Z,87.60
2018-09-27T17:47:46.517Z,88.00
2018-09-27T17:50:15.549Z,88.40
2018-09-27T17:52:44.591Z,88.70
2018-09-27T17:55:14.042Z,89.80
2018-09-27T17:57:43.129Z,89.30
2018-09-27T18:00:12.419Z,90.00
2018-09-27T18:02:41.362Z,89.80
2018-09-27T18:05:18.983Z,90.00
2018-09-27T18:07:39.932Z,90.20
2018-09-27T18:10:08.910Z,90.40
2018-09-27T18:12:37.718Z,90.50
2018-09-27T18:15:06.623Z,90.60
2018-09-27T18:17:35.570Z,90.80
2018-09-27T18:20:04.713Z,90.80
2018-09-27T18:22:33.481Z,91.20
2018-09-27T18:25:02.634Z,91.20
2018-09-27T18:27:31.861Z,91.20
2018-09-27T18:30:01.160Z,91.50
2018-09-27T18:32:30.247Z,91.50
2018-09-27T18:34:59.161Z,91.60
2018-09-27T18:37:28.540Z,91.90
2018-09-27T18:39:57.477Z,91.70
2018-09-27T18:42:26.508Z,91.90
2018-09-27T18:44:55.482Z,92.30
2018-09-27T18:47:24.610Z,92.30
2018-09-27T18:50:00.407Z,92.30
2018-09-27T18:52:29.433Z,92.20
2018-09-27T18:54:58.713Z,91.80
2018-09-27T18:57:27.986Z,92.40
2018-09-27T18:59:57.201Z,92.30
2018-09-27T19:02:26.478Z,92.40
2018-09-27T19:04:55.513Z,92.30
2018-09-27T19:07:24.541Z,92.30
2018-09-27T19:09:53.714Z,92.20
2018-09-27T19:12:22.629Z,92.20
2018-09-27T19:14:51.533Z,92.20
2018-09-27T19:17:20.500Z,92.30
2018-09-27T19:19:49.373Z,92.30
2018-09-27T19:22:18.384Z,92.30
2018-09-27T19:24:47.380Z,92.70
2018-09-27T19:27:16.405Z,92.40
2018-09-27T19:29:45.445Z,92.50
2018-09-27T19:32:14.529Z,92.50
2018-09-27T19:34:43.906Z,92.50
2018-09-27T19:37:12.830Z,92.50
2018-09-27T19:39:41.692Z,92.60
2018-09-27T19:42:10.631Z,92.60
2018-09-27T19:44:39.590Z,92.60
2018-09-27T19:47:08.626Z,92.70
2018-09-27T19:49:37.586Z,92.70
2018-09-27T19:52:07.032Z,92.80
2018-09-27T19:54:36.229Z,92.70
2018-09-27T19:57:05.254Z,92.80
2018-09-27T19:59:34.229Z,92.90
2018-09-27T20:02:03.289Z,93.00
2018-09-27T20:04:32.448Z,92.90
2018-09-27T20:07:01.278Z,92.90
2018-09-27T20:09:30.242Z,92.90
2018-09-27T20:11:59.278Z,93.00
2018-09-27T20:14:28.294Z,93.10
2018-09-27T20:16:57.329Z,93.10
2018-09-27T20:19:26.310Z,93.10
2018-09-27T20:21:55.292Z,93.50
2018-09-27T20:24:24.350Z,93.10
2018-09-27T20:26:53.401Z,93.10
2018-09-27T20:29:22.341Z,93.20
2018-09-27T20:31:51.309Z,93.20
2018-09-27T20:34:20.402Z,93.30
2018-09-27T20:36:49.552Z,93.20
2018-09-27T20:39:18.567Z,93.10
2018-09-27T20:41:47.542Z,93.20
2018-09-27T20:44:16.625Z,93.30
2018-09-27T20:46:45.962Z,93.40
2018-09-27T20:49:15.209Z,93.90
2018-09-27T20:51:44.186Z,93.70
2018-09-27T20:54:13.374Z,93.60
2018-09-27T20:56:42.509Z,93.50
2018-09-27T20:59:11.515Z,93.50
2018-09-27T21:01:40.498Z,93.60
2018-09-27T21:04:09.430Z,93.60
2018-09-27T21:06:39.137Z,93.60
2018-09-27T21:09:10.985Z,93.60
2018-09-27T21:11:40.359Z,93.60
2018-09-27T21:14:09.718Z,93.60
2018-09-27T21:16:39.082Z,93.60
2018-09-27T21:19:08.078Z,93.60
2018-09-27T21:21:36.997Z,93.60
2018-09-27T21:24:05.734Z,93.70
2018-09-27T21:26:34.787Z,94.10
2018-09-27T21:29:03.669Z,93.70
2018-09-27T21:31:32.822Z,93.80
2018-09-27T21:34:01.801Z,93.80
2018-09-27T21:36:30.783Z,93.70
2018-09-27T21:38:59.914Z,93.80
2018-09-27T21:41:28.871Z,93.70
2018-09-27T21:43:58.023Z,94.10
2018-09-27T21:46:26.778Z,93.80
2018-09-27T21:48:55.717Z,93.50
2018-09-27T21:51:24.537Z,93.90
2018-09-27T21:53:53.518Z,94.00
2018-09-27T21:56:22.505Z,93.90
2018-09-27T21:58:51.454Z,94.00
2018-09-27T22:01:20.550Z,94.00
2018-09-27T22:03:49.534Z,94.00
2018-09-27T22:06:18.580Z,94.00
2018-09-27T22:08:47.534Z,93.90
2018-09-27T22:11:16.594Z,94.00
2018-09-27T22:13:45.569Z,94.00
2018-09-27T22:16:14.485Z,94.00
2018-09-27T22:18:43.433Z,94.00
2018-09-27T22:21:12.426Z,94.00
2018-09-27T22:23:41.401Z,94.00
2018-09-27T22:26:10.701Z,94.10
2018-09-27T22:28:39.678Z,94.10
2018-09-27T22:31:08.715Z,94.10
2018-09-27T22:33:37.597Z,94.00
2018-09-27T22:36:06.521Z,94.20
2018-09-27T22:38:35.502Z,94.10
2018-09-27T22:41:04.450Z,94.10
2018-09-27T22:43:33.505Z,94.10
2018-09-27T22:46:02.248Z,94.10
2018-09-27T22:48:31.010Z,94.40
2018-09-27T22:51:00.014Z,94.20
2018-09-27T22:53:29.023Z,94.10
2018-09-27T22:55:57.894Z,94.00
2018-09-27T22:58:26.786Z,94.10
2018-09-27T23:00:55.797Z,94.00
2018-09-27T23:03:25.034Z,94.00
2018-09-27T23:05:54.030Z,94.00
2018-09-27T23:08:23.016Z,94.00
2018-09-27T23:10:51.901Z,94.00
2018-09-27T23:13:20.998Z,94.00
2018-09-27T23:15:50.093Z,94.10
2018-09-27T23:18:19.043Z,94.00
2018-09-27T23:20:48.014Z,94.10
2018-09-27T23:23:17.093Z,94.10
2018-09-27T23:25:46.273Z,94.00
2018-09-27T23:28:15.520Z,94.00
2018-09-27T23:30:44.533Z,94.00
2018-09-27T23:33:13.749Z,94.00
2018-09-27T23:35:42.829Z,93.90
2018-09-27T23:38:11.881Z,93.90
2018-09-27T23:40:40.886Z,93.90
2018-09-27T23:43:09.834Z,93.90
2018-09-27T23:45:38.822Z,93.90
2018-09-27T23:48:07.758Z,93.90
2018-09-27T23:50:36.685Z,93.90
2018-09-27T23:53:05.774Z,93.90
2018-09-27T23:55:34.758Z,93.90
2018-09-27T23:58:03.717Z,93.90
